Terminal Aerodrome Forecast
Issued by NWS

Home | Current Version | Previous Version | Text Only | Print | Product List | Glossary On
Versions: 1 2 3 4 5 6 7 8 9 10 11 12 13 14 15 16 17 18 19
000
FTUS43 KGRR 301700 RRA
TAFBTL
TAF
KBTL 301750Z 3018/0118 01006KT P6SM SCT015 BKN020 OVC026
     FM010500 00000KT 5SM BR OVC015
     FM011400 12004KT P6SM OVC025=

USA.gov is the U.S. government's official web portal to all federal, state and local government web resources and services.